Terminal Aerodrome Forecast
Issued by NWS

Home | Current Version | Previous Version | Text Only | Print | Product List | Glossary Off
Versions: 1 2 3 4 5 6 7 8 9 10 11 12 13 14 15 16 17 18 19 20 21 22 23 24 25

000
FTUS43 KGRB 191000 AAC
TAFCWA
TAF AMD
KCWA 191046Z 1911/2006 16008KT 3SM BR OVC002
      TEMPO 1911/1913 1SM BR
     FM191300 19010G16KT 3SM BR BKN003 WS010/22030KT
     FM191600 18014G22KT P6SM SCT100 BKN200
     FM192200 19011KT P6SM BKN100 BKN250
     FM200200 18006KT P6SM VCSH BKN070
      AMD LTD TO CLD VIS AND WIND TIL 191200=

USA.gov is the U.S. government's official web portal to all federal, state and local government web resources and services.